createdAt,value
2022-12-28T00:00:24.832Z,101053.25
2022-12-28T00:03:14.840Z,101067.41
2022-12-28T00:06:03.869Z,101067.97
2022-12-28T00:08:54.750Z,101064.66
2022-12-28T00:11:43.349Z,101072.38
2022-12-28T00:14:31.928Z,101083.22
2022-12-28T00:17:20.609Z,101069.41
2022-12-28T00:20:12.193Z,101064.81
2022-12-28T00:23:00.892Z,101069.66
2022-12-28T00:25:49.491Z,101067.75
2022-12-28T00:28:38.302Z,101057.91
2022-12-28T00:31:26.894Z,101053.38
2022-12-28T00:34:16.008Z,101048.78
2022-12-28T00:37:08.254Z,101050.59
2022-12-28T00:40:01.421Z,101046.53
2022-12-28T00:42:50.056Z,101048.56
2022-12-28T00:45:38.739Z,101044.88
2022-12-28T00:48:27.403Z,101036.94
2022-12-28T00:51:17.470Z,101048.25
2022-12-28T00:54:07.568Z,101042.75
2022-12-28T00:56:56.152Z,101034.28
2022-12-28T00:59:44.759Z,101037.91
2022-12-28T01:02:33.460Z,101037.78
2022-12-28T01:05:22.267Z,101041.09
2022-12-28T01:08:10.932Z,101040.97
2022-12-28T01:11:00.943Z,101030.78
2022-12-28T01:13:50.352Z,101033.63
2022-12-28T01:16:39.039Z,101030.69
2022-12-28T01:19:27.669Z,101027.00
2022-12-28T01:22:16.231Z,101029.19
2022-12-28T01:25:05.194Z,101020.34
2022-12-28T01:27:55.288Z,101020.72
2022-12-28T01:30:43.912Z,101012.53
2022-12-28T01:33:32.626Z,101016.38
2022-12-28T01:36:23.182Z,101010.03
2022-12-28T01:39:11.958Z,100997.06
2022-12-28T01:42:00.544Z,100991.06
2022-12-28T01:44:51.259Z,100990.72
2022-12-28T01:47:40.007Z,100994.72
2022-12-28T01:50:29.912Z,100993.06
2022-12-28T01:53:19.189Z,100984.06
2022-12-28T01:56:08.178Z,100995.69
2022-12-28T01:58:57.239Z,100994.03
2022-12-28T02:01:47.538Z,100985.38
2022-12-28T02:04:36.365Z,100978.72
2022-12-28T02:07:33.814Z,100983.72
2022-12-28T02:10:44.031Z,100967.34
2022-12-28T02:13:32.471Z,100964.91
2022-12-28T02:16:21.262Z,100957.72
2022-12-28T02:19:13.576Z,100947.06
2022-12-28T02:22:17.366Z,100936.41
2022-12-28T02:25:38.198Z,100926.03
2022-12-28T02:28:54.898Z,100926.72
2022-12-28T02:31:46.015Z,100913.72
2022-12-28T02:34:37.818Z,100915.53
2022-12-28T02:37:29.117Z,100918.41
2022-12-28T02:40:21.102Z,100904.38
2022-12-28T02:43:09.803Z,100911.41
2022-12-28T02:46:17.319Z,100897.78
2022-12-28T02:49:36.008Z,100892.44
2022-12-28T02:52:28.880Z,100889.13
2022-12-28T02:55:44.409Z,100883.78
2022-12-28T02:58:59.367Z,100873.13
2022-12-28T03:02:01.867Z,100870.19
2022-12-28T03:05:00.713Z,100865.28
2022-12-28T03:08:11.724Z,100858.69
2022-12-28T03:11:04.123Z,100852.16
2022-12-28T03:13:57.545Z,100850.13
2022-12-28T03:17:06.267Z,100848.13
2022-12-28T03:20:17.001Z,100846.84
2022-12-28T03:23:25.418Z,100840.19
2022-12-28T03:26:32.302Z,100824.19
2022-12-28T03:29:39.877Z,100827.88
2022-12-28T03:32:28.593Z,100821.25
2022-12-28T03:35:20.089Z,100820.50
2022-12-28T03:38:09.890Z,100811.69
2022-12-28T03:41:07.485Z,100803.22
2022-12-28T03:43:58.146Z,100794.22
2022-12-28T03:49:37.653Z,100775.28
2022-12-28T03:52:27.917Z,100774.06
2022-12-28T03:55:17.443Z,100764.63
2022-12-28T03:58:06.217Z,100756.00
2022-12-28T04:00:54.851Z,100757.63
2022-12-28T04:03:43.491Z,100754.22
2022-12-28T04:06:32.078Z,100756.09
2022-12-28T04:09:22.443Z,100747.88
2022-12-28T04:12:12.292Z,100747.88
2022-12-28T04:15:00.922Z,100742.91
2022-12-28T04:17:49.514Z,100740.09
2022-12-28T04:20:38.161Z,100724.25
2022-12-28T04:23:27.028Z,100716.63
2022-12-28T04:26:17.712Z,100716.63
2022-12-28T04:34:48.180Z,100704.75
2022-12-28T04:37:38.367Z,100711.78
2022-12-28T04:40:26.965Z,100714.22
2022-12-28T04:43:18.087Z,100708.25
2022-12-28T04:46:09.606Z,100712.59
2022-12-28T04:48:58.355Z,100709.66
2022-12-28T04:51:46.995Z,100711.84
2022-12-28T04:54:35.687Z,100701.19
2022-12-28T04:57:24.282Z,100701.91
2022-12-28T05:00:15.834Z,100689.59
2022-12-28T05:03:04.913Z,100681.78
2022-12-28T05:05:53.568Z,100675.63
2022-12-28T05:08:42.760Z,100661.28
2022-12-28T05:11:31.927Z,100669.84
2022-12-28T05:14:20.673Z,100679.31
2022-12-28T05:17:10.702Z,100673.13
2022-12-28T05:19:59.289Z,100663.13
2022-12-28T05:22:47.972Z,100655.59
2022-12-28T05:25:36.579Z,100657.59
2022-12-28T05:28:25.753Z,100648.59
2022-12-28T05:31:15.499Z,100639.97
2022-12-28T05:34:05.475Z,100654.56
2022-12-28T05:36:54.544Z,100658.34
2022-12-28T05:39:43.133Z,100657.34
2022-12-28T05:42:31.770Z,100647.31
2022-12-28T05:45:23.326Z,100652.03
2022-12-28T05:48:11.945Z,100652.03
2022-12-28T05:51:03.634Z,100657.34
2022-12-28T05:53:52.240Z,100647.31
2022-12-28T05:56:40.819Z,100658.06
2022-12-28T05:59:29.428Z,100659.25
2022-12-28T06:02:23.048Z,100653.75
2022-12-28T06:05:14.201Z,100641.63
2022-12-28T06:08:04.163Z,100639.59
2022-12-28T06:10:52.773Z,100640.34
2022-12-28T06:13:41.580Z,100638.41
2022-12-28T06:16:31.939Z,100623.97
2022-12-28T06:19:20.533Z,100616.53
2022-12-28T06:22:09.249Z,100618.63
2022-12-28T06:30:36.263Z,100612.38
2022-12-28T06:33:24.897Z,100612.38
2022-12-28T06:36:19.601Z,100619.00
2022-12-28T06:39:10.724Z,100612.03
2022-12-28T06:42:00.682Z,100619.94
2022-12-28T06:44:49.296Z,100609.91
2022-12-28T06:47:37.903Z,100605.16
2022-12-28T06:50:26.568Z,100600.06
2022-12-28T06:53:15.152Z,100605.03
2022-12-28T06:56:05.628Z,100598.03
2022-12-28T06:59:02.321Z,100597.03
2022-12-28T07:01:51.760Z,100597.41
2022-12-28T07:04:40.393Z,100599.25
2022-12-28T07:07:29.113Z,100595.38
2022-12-28T07:10:17.868Z,100592.34
2022-12-28T07:13:07.269Z,100587.38
2022-12-28T07:15:57.254Z,100585.56
2022-12-28T07:18:46.189Z,100573.88
2022-12-28T07:21:37.258Z,100570.66
2022-12-28T07:24:25.844Z,100556.31
2022-12-28T07:30:03.011Z,100547.84
2022-12-28T07:32:53.006Z,100552.53
2022-12-28T07:35:41.721Z,100534.06
2022-12-28T07:38:30.285Z,100535.72
2022-12-28T07:41:20.663Z,100535.34
2022-12-28T07:44:09.266Z,100541.31
2022-12-28T07:46:57.912Z,100534.59
2022-12-28T07:49:47.937Z,100526.72
2022-12-28T07:52:38.034Z,100521.41
2022-12-28T07:55:29.752Z,100523.28
2022-12-28T07:58:18.372Z,100518.59
2022-12-28T08:01:08.585Z,100517.34
2022-12-28T08:03:58.801Z,100523.47
2022-12-28T08:06:48.921Z,100521.41
2022-12-28T08:09:37.519Z,100517.25
2022-12-28T08:12:26.223Z,100518.72
2022-12-28T08:15:14.994Z,100526.06
2022-12-28T08:18:03.650Z,100511.53
2022-12-28T08:20:52.456Z,100521.97
2022-12-28T08:23:42.966Z,100518.06
2022-12-28T08:26:33.273Z,100506.16
2022-12-28T08:29:23.743Z,100493.38
2022-12-28T08:32:12.452Z,100504.41
2022-12-28T08:35:01.135Z,100491.91
2022-12-28T08:37:49.754Z,100480.69
2022-12-28T08:40:39.703Z,100472.91
2022-12-28T08:43:28.710Z,100471.44
2022-12-28T08:46:19.254Z,100474.09
2022-12-28T08:49:08.045Z,100476.81
2022-12-28T08:51:56.743Z,100471.09
2022-12-28T08:54:45.360Z,100470.09
2022-12-28T08:57:36.085Z,100476.81
2022-12-28T09:00:24.796Z,100472.13
2022-12-28T09:06:06.272Z,100460.09
2022-12-28T09:09:05.295Z,100453.75
2022-12-28T09:11:55.134Z,100445.19
2022-12-28T09:14:45.054Z,100442.69
2022-12-28T09:17:33.696Z,100448.59
2022-12-28T09:20:22.322Z,100439.75
2022-12-28T09:23:10.986Z,100436.84
2022-12-28T09:26:05.755Z,100431.13
2022-12-28T09:28:55.658Z,100436.44
2022-12-28T09:31:45.793Z,100425.44
2022-12-28T09:34:37.671Z,100431.63
2022-12-28T09:37:26.907Z,100420.53
2022-12-28T09:40:15.533Z,100420.22
2022-12-28T09:43:04.306Z,100415.47
2022-12-28T09:45:53.943Z,100414.56
2022-12-28T09:48:56.051Z,100416.66
2022-12-28T09:51:51.177Z,100419.66
2022-12-28T09:54:41.253Z,100407.66
2022-12-28T09:57:37.075Z,100414.50
2022-12-28T10:00:28.642Z,100403.53
2022-12-28T10:03:20.341Z,100404.94
2022-12-28T10:06:14.248Z,100394.69
2022-12-28T10:09:05.244Z,100399.03
2022-12-28T10:11:54.083Z,100380.63
2022-12-28T10:14:42.887Z,100384.13
2022-12-28T10:17:31.575Z,100389.72
2022-12-28T10:20:22.325Z,100386.47
2022-12-28T10:23:15.159Z,100384.38
2022-12-28T10:26:04.076Z,100369.59
2022-12-28T10:28:54.836Z,100362.16
2022-12-28T10:31:43.597Z,100367.53
2022-12-28T10:34:34.342Z,100362.41
2022-12-28T10:37:23.409Z,100344.53
2022-12-28T10:40:24.481Z,100353.34
2022-12-28T10:43:20.442Z,100342.53
2022-12-28T10:46:16.893Z,100334.69
2022-12-28T10:49:06.957Z,100333.28
2022-12-28T10:52:04.061Z,100324.03
2022-12-28T10:55:07.699Z,100342.22
2022-12-28T10:58:33.314Z,100332.91
2022-12-28T11:01:27.119Z,100337.00
2022-12-28T11:04:19.221Z,100329.06
2022-12-28T11:07:07.796Z,100319.34
2022-12-28T11:09:56.466Z,100318.75
2022-12-28T11:12:46.413Z,100313.41
2022-12-28T11:15:36.483Z,100311.03
2022-12-28T11:18:25.147Z,100299.31
2022-12-28T11:21:19.223Z,100298.22
2022-12-28T11:24:08.693Z,100291.44
2022-12-28T11:26:57.351Z,100292.13
2022-12-28T11:29:47.696Z,100289.59
2022-12-28T11:32:44.011Z,100287.31
2022-12-28T11:35:34.167Z,100284.03
2022-12-28T11:38:39.759Z,100281.16
2022-12-28T11:42:19.405Z,100273.31
2022-12-28T11:45:00.273Z,100271.69
2022-12-28T11:47:50.629Z,100271.88
2022-12-28T11:50:51.219Z,100275.38
2022-12-28T11:53:55.127Z,100268.84
2022-12-28T11:57:01.895Z,100272.50
2022-12-28T11:59:53.228Z,100272.91
2022-12-28T12:02:42.385Z,100272.56
2022-12-28T12:05:54.411Z,100257.34
2022-12-28T12:08:43.740Z,100257.97
2022-12-28T12:11:33.419Z,100252.63
2022-12-28T12:14:26.781Z,100247.09
2022-12-28T12:17:22.109Z,100246.13
2022-12-28T12:20:29.027Z,100240.59
2022-12-28T12:23:28.220Z,100245.22
2022-12-28T12:26:28.052Z,100247.91
2022-12-28T12:29:19.415Z,100254.53
2022-12-28T12:32:14.215Z,100259.25
2022-12-28T12:35:05.825Z,100245.03
2022-12-28T12:37:56.728Z,100242.94
2022-12-28T12:41:04.600Z,100240.91
2022-12-28T12:44:05.452Z,100233.19
2022-12-28T12:47:17.946Z,100232.69
2022-12-28T12:50:20.403Z,100239.06
2022-12-28T12:53:24.638Z,100239.06
2022-12-28T12:56:25.922Z,100239.22
2022-12-28T12:59:29.534Z,100247.03
2022-12-28T13:02:42.391Z,100245.75
2022-12-28T13:05:38.056Z,100239.66
2022-12-28T13:08:37.562Z,100233.50
2022-12-28T13:11:27.699Z,100232.28
2022-12-28T13:14:20.830Z,100229.16
2022-12-28T13:17:17.610Z,100232.25
2022-12-28T13:20:11.646Z,100233.88
2022-12-28T13:23:00.417Z,100226.50
2022-12-28T13:25:51.063Z,100227.34
2022-12-28T13:28:49.561Z,100220.59
2022-12-28T13:31:40.464Z,100223.25
2022-12-28T13:34:30.199Z,100227.56
2022-12-28T13:37:19.010Z,100228.59
2022-12-28T13:40:11.345Z,100224.53
2022-12-28T13:43:12.109Z,100217.31
2022-12-28T13:46:07.822Z,100218.53
2022-12-28T13:48:59.559Z,100211.41
2022-12-28T13:51:53.068Z,100217.97
2022-12-28T13:54:46.225Z,100219.97
2022-12-28T13:57:58.868Z,100223.88
2022-12-28T14:00:45.929Z,100222.84
2022-12-28T14:03:42.316Z,100211.22
2022-12-28T14:06:32.055Z,100217.19
2022-12-28T14:09:22.144Z,100214.72
2022-12-28T14:12:11.114Z,100215.31
2022-12-28T14:15:00.282Z,100208.53
2022-12-28T14:17:51.258Z,100212.47
2022-12-28T14:20:49.575Z,100221.31
2022-12-28T14:23:39.631Z,100218.41
2022-12-28T14:26:30.391Z,100216.94
2022-12-28T14:29:22.603Z,100216.75
2022-12-28T14:32:15.764Z,100213.69
2022-12-28T14:35:20.593Z,100207.53
2022-12-28T14:38:18.886Z,100206.91
2022-12-28T14:41:07.987Z,100211.84
2022-12-28T14:43:57.776Z,100212.25
2022-12-28T14:46:46.681Z,100214.72
2022-12-28T14:49:37.523Z,100213.06
2022-12-28T14:52:37.537Z,100211.84
2022-12-28T14:55:33.810Z,100211.00
2022-12-28T14:58:24.251Z,100205.66
2022-12-28T15:01:12.996Z,100206.50
2022-12-28T15:04:04.485Z,100206.91
2022-12-28T15:06:53.081Z,100213.06
2022-12-28T15:09:41.718Z,100208.94
2022-12-28T15:12:31.889Z,100224.91
2022-12-28T15:15:20.568Z,100206.50
2022-12-28T15:18:09.235Z,100198.19
2022-12-28T15:20:58.527Z,100202.75
2022-12-28T15:23:50.263Z,100194.16
2022-12-28T15:26:39.420Z,100205.63
2022-12-28T15:30:03.708Z,100205.16
2022-12-28T15:32:38.230Z,100208.44
2022-12-28T15:35:27.098Z,100203.09
2022-12-28T15:38:15.709Z,100197.41
2022-12-28T15:41:04.371Z,100201.69
2022-12-28T15:43:53.016Z,100190.41
2022-12-28T15:46:43.017Z,100199.44
2022-12-28T15:49:31.678Z,100193.66
2022-12-28T15:52:20.338Z,100193.22
2022-12-28T15:55:09.559Z,100199.81
2022-12-28T15:57:58.205Z,100194.03
2022-12-28T16:00:47.864Z,100200.97
2022-12-28T16:03:38.028Z,100188.66
2022-12-28T16:06:27.440Z,100188.06
2022-12-28T16:09:16.413Z,100188.06
2022-12-28T16:12:05.321Z,100186.44
2022-12-28T16:14:53.974Z,100187.44
2022-12-28T16:17:52.954Z,100185.81
2022-12-28T16:20:48.992Z,100184.56
2022-12-28T16:23:39.983Z,100180.91
2022-12-28T16:26:29.094Z,100173.91
2022-12-28T16:29:17.983Z,100181.34
2022-12-28T16:32:07.109Z,100174.13
2022-12-28T16:34:56.088Z,100175.16
2022-12-28T16:37:46.060Z,100177.63
2022-12-28T16:40:36.261Z,100173.91
2022-12-28T16:43:25.250Z,100178.00
2022-12-28T16:46:13.940Z,100175.97
2022-12-28T16:49:03.560Z,100167.72
2022-12-28T16:51:52.171Z,100170.22
2022-12-28T16:54:42.150Z,100171.88
2022-12-28T16:57:30.820Z,100166.69
2022-12-28T17:00:19.686Z,100171.44
2022-12-28T17:03:08.411Z,100165.06
2022-12-28T17:05:56.997Z,100159.91
2022-12-28T17:08:45.648Z,100161.16
2022-12-28T17:11:35.759Z,100163.59
2022-12-28T17:14:36.883Z,100156.41
2022-12-28T17:17:26.264Z,100154.16
2022-12-28T17:20:15.295Z,100156.56
2022-12-28T17:23:03.954Z,100155.78
2022-12-28T17:25:54.877Z,100152.09
2022-12-28T17:28:44.981Z,100155.34
2022-12-28T17:31:33.947Z,100154.16
2022-12-28T17:34:22.629Z,100150.81
2022-12-28T17:37:11.283Z,100145.09
2022-12-28T17:39:59.915Z,100140.16
2022-12-28T17:42:48.671Z,100138.53
2022-12-28T17:45:38.939Z,100139.78
2022-12-28T17:48:29.688Z,100131.53
2022-12-28T17:51:18.399Z,100136.09
2022-12-28T17:54:07.118Z,100134.81
2022-12-28T17:56:57.461Z,100138.94
2022-12-28T17:59:46.709Z,100132.41
2022-12-28T18:02:36.805Z,100135.22
2022-12-28T18:05:25.506Z,100129.50
2022-12-28T18:08:14.444Z,100128.28
2022-12-28T18:11:03.379Z,100133.63
2022-12-28T18:13:52.018Z,100127.06
2022-12-28T18:16:40.735Z,100114.94
2022-12-28T18:19:30.768Z,100125.19
2022-12-28T18:22:19.367Z,100122.94
2022-12-28T18:25:08.526Z,100122.94
2022-12-28T18:27:57.120Z,100123.78
2022-12-28T18:30:45.882Z,100115.56
2022-12-28T18:33:35.729Z,100118.03
2022-12-28T18:36:25.825Z,100122.56
2022-12-28T18:39:14.524Z,100125.44
2022-12-28T18:42:03.517Z,100119.06
2022-12-28T18:44:52.398Z,100118.66
2022-12-28T18:47:41.021Z,100124.59
2022-12-28T18:50:29.789Z,100124.16
2022-12-28T18:53:19.798Z,100129.13
2022-12-28T18:56:10.027Z,100127.06
2022-12-28T18:58:58.967Z,100119.88
2022-12-28T19:04:56.949Z,100132.00
2022-12-28T19:07:49.257Z,100117.00
2022-12-28T19:10:39.673Z,100109.88
2022-12-28T19:13:28.527Z,100111.50
2022-12-28T19:16:24.481Z,100098.94
2022-12-28T19:19:17.859Z,100096.88
2022-12-28T19:22:06.530Z,100089.91
2022-12-28T19:24:55.106Z,100081.09
2022-12-28T19:27:45.095Z,100069.22
2022-12-28T19:30:33.843Z,100064.69
2022-12-28T19:33:22.456Z,100053.63
2022-12-28T19:36:12.280Z,100055.50
2022-12-28T19:39:00.891Z,100064.53
2022-12-28T19:41:49.562Z,100050.97
2022-12-28T19:44:39.627Z,100048.31
2022-12-28T19:47:28.198Z,100052.00
2022-12-28T19:50:17.301Z,100054.47
2022-12-28T19:53:05.978Z,100048.72
2022-12-28T19:55:59.428Z,100050.38
2022-12-28T19:58:48.438Z,100050.97
2022-12-28T20:01:39.503Z,100047.50
2022-12-28T20:04:28.484Z,100035.59
2022-12-28T20:07:17.105Z,100035.59
2022-12-28T20:10:06.573Z,100030.28
2022-12-28T20:12:55.194Z,100031.91
2022-12-28T20:15:43.781Z,100032.09
2022-12-28T20:18:33.771Z,100035.19
2022-12-28T20:21:23.275Z,100033.97
2022-12-28T20:24:13.526Z,100018.75
2022-12-28T20:27:02.160Z,100015.88
2022-12-28T20:29:50.744Z,100008.91
2022-12-28T20:32:44.561Z,100006.44
2022-12-28T20:35:35.138Z,100003.16
2022-12-28T20:38:23.761Z,100005.19
2022-12-28T20:41:35.456Z,100007.28
2022-12-28T20:44:25.614Z,99999.44
2022-12-28T20:47:14.577Z,100011.34
2022-12-28T20:50:03.975Z,100006.03
2022-12-28T20:52:55.737Z,100010.56
2022-12-28T20:55:44.340Z,100010.94
2022-12-28T20:58:33.013Z,100011.34
2022-12-28T21:01:22.560Z,100004.38
2022-12-28T21:04:11.986Z,99994.53
2022-12-28T21:07:00.547Z,99983.00
2022-12-28T21:09:51.074Z,99987.13
2022-12-28T21:12:39.690Z,99990.41
2022-12-28T21:15:28.266Z,99984.25
2022-12-28T21:18:16.945Z,99978.53
2022-12-28T21:21:06.081Z,99965.19
2022-12-28T21:23:54.692Z,99945.66
2022-12-28T21:26:44.643Z,99956.94
2022-12-28T21:29:33.246Z,99942.19
2022-12-28T21:32:21.896Z,99938.69
2022-12-28T21:35:11.210Z,99931.25
2022-12-28T21:37:59.851Z,99929.66
2022-12-28T21:40:58.284Z,99917.78
2022-12-28T21:43:48.321Z,99921.88
2022-12-28T21:46:37.046Z,99915.28
2022-12-28T21:49:25.773Z,99910.75
2022-12-28T21:52:14.374Z,99919.19
2022-12-28T21:55:23.304Z,99911.16
2022-12-28T21:58:11.915Z,99900.06
2022-12-28T22:01:19.743Z,99897.16
2022-12-28T22:04:25.951Z,99886.94
2022-12-28T22:07:16.759Z,99873.78
2022-12-28T22:10:23.578Z,99872.56
2022-12-28T22:13:13.191Z,99869.25
2022-12-28T22:16:03.305Z,99865.94
2022-12-28T22:19:02.090Z,99863.72
2022-12-28T22:21:51.904Z,99858.38
2022-12-28T22:24:40.510Z,99849.13
2022-12-28T22:27:29.096Z,99842.97
2022-12-28T22:30:17.713Z,99836.19
2022-12-28T22:33:07.741Z,99832.72
2022-12-28T22:35:56.251Z,99824.13
2022-12-28T22:38:45.029Z,99821.66
2022-12-28T22:41:33.649Z,99829.06
2022-12-28T22:44:22.306Z,99824.16
2022-12-28T22:47:10.951Z,99824.13
2022-12-28T22:50:00.872Z,99817.34
2022-12-28T22:52:49.431Z,99815.13
2022-12-28T22:55:38.026Z,99811.81
2022-12-28T22:58:27.529Z,99822.50
2022-12-28T23:01:18.425Z,99815.50
2022-12-28T23:04:07.754Z,99809.78
2022-12-28T23:07:03.303Z,99802.38
2022-12-28T23:09:52.702Z,99792.53
2022-12-28T23:12:41.341Z,99790.06
2022-12-28T23:15:29.964Z,99781.03
2022-12-28T23:18:36.122Z,99768.91
2022-12-28T23:21:43.293Z,99770.34
2022-12-28T23:24:50.906Z,99762.97
2022-12-28T23:27:41.786Z,99750.69
2022-12-28T23:30:30.573Z,99754.41
2022-12-28T23:33:20.064Z,99749.47
2022-12-28T23:36:09.535Z,99763.84
2022-12-28T23:38:58.085Z,99758.88
2022-12-28T23:41:50.861Z,99753.09
2022-12-28T23:44:39.471Z,99750.44
2022-12-28T23:47:28.230Z,99748.56
2022-12-28T23:50:17.783Z,99738.31
2022-12-28T23:53:06.380Z,99743.28
2022-12-28T23:55:54.983Z,99739.59
2022-12-28T23:58:44.972Z,99738.63
